createdAt,value
2023-02-27T00:00:54.347Z,12.73
2023-02-27T00:03:27.630Z,15.93
2023-02-27T00:05:56.316Z,12.52
2023-02-27T00:08:24.122Z,13.48
2023-02-27T00:10:51.332Z,14.10
2023-02-27T00:13:18.865Z,12.27
2023-02-27T00:15:48.076Z,13.40
2023-02-27T00:18:15.676Z,13.43
2023-02-27T00:20:42.945Z,12.23
2023-02-27T00:23:10.879Z,14.52
2023-02-27T00:25:38.124Z,12.70
2023-02-27T00:28:05.586Z,13.65
2023-02-27T00:30:33.230Z,13.38
2023-02-27T00:33:00.743Z,12.93
2023-02-27T00:35:27.983Z,15.57
2023-02-27T00:37:55.434Z,13.98
2023-02-27T00:40:25.290Z,13.90
2023-02-27T00:42:53.416Z,15.02
2023-02-27T00:45:20.626Z,12.68
2023-02-27T00:47:48.389Z,12.55
2023-02-27T00:50:15.940Z,16.50
2023-02-27T00:52:43.613Z,12.98
2023-02-27T00:55:11.112Z,12.77
2023-02-27T00:57:40.390Z,14.20
2023-02-27T01:00:09.075Z,12.88
2023-02-27T01:02:36.692Z,10.60
2023-02-27T01:05:04.695Z,14.55
2023-02-27T01:07:32.427Z,12.57
2023-02-27T01:10:00.728Z,12.07
2023-02-27T01:12:28.278Z,11.85
2023-02-27T01:14:55.508Z,13.55
2023-02-27T01:17:23.593Z,13.48
2023-02-27T01:19:50.942Z,12.70
2023-02-27T01:22:18.772Z,11.35
2023-02-27T01:24:46.399Z,11.25
2023-02-27T01:27:13.919Z,11.13
2023-02-27T01:29:41.410Z,11.48
2023-02-27T01:32:09.141Z,13.27
2023-02-27T01:34:36.463Z,11.77
2023-02-27T01:37:04.231Z,12.57
2023-02-27T01:39:32.898Z,11.00
2023-02-27T01:42:01.043Z,11.55
2023-02-27T01:44:30.051Z,11.23
2023-02-27T01:46:57.878Z,10.85
2023-02-27T01:49:30.500Z,10.15
2023-02-27T01:52:05.633Z,10.23
2023-02-27T01:54:36.304Z,12.10
2023-02-27T01:57:06.610Z,12.50
2023-02-27T01:59:41.046Z,12.35
2023-02-27T02:02:26.877Z,9.88
2023-02-27T02:07:25.223Z,11.82
2023-02-27T02:09:56.493Z,10.10
2023-02-27T02:12:28.835Z,10.45
2023-02-27T02:14:56.066Z,11.07
2023-02-27T02:17:45.397Z,11.07
2023-02-27T02:20:31.556Z,10.93
2023-02-27T02:23:11.685Z,10.00
2023-02-27T02:26:06.729Z,11.02
2023-02-27T02:29:02.198Z,10.07
2023-02-27T02:31:38.365Z,11.00
2023-02-27T02:34:24.142Z,9.45
2023-02-27T02:39:32.856Z,9.88
2023-02-27T02:42:18.526Z,8.93
2023-02-27T02:44:54.652Z,8.27
2023-02-27T02:47:30.576Z,10.80
2023-02-27T02:50:08.623Z,9.07
2023-02-27T02:52:44.014Z,8.98
2023-02-27T02:55:30.725Z,8.73
2023-02-27T02:58:14.330Z,8.05
2023-02-27T03:00:49.386Z,9.15
2023-02-27T03:03:29.696Z,8.95
2023-02-27T03:06:03.630Z,10.02
2023-02-27T03:08:36.256Z,9.65
2023-02-27T03:11:04.925Z,8.85
2023-02-27T03:13:41.290Z,10.07
2023-02-27T03:16:25.970Z,8.02
2023-02-27T03:19:04.408Z,9.73
2023-02-27T03:21:55.375Z,7.95
2023-02-27T03:24:39.768Z,8.02
2023-02-27T03:27:09.144Z,11.02
2023-02-27T03:29:48.658Z,8.65
2023-02-27T03:32:22.744Z,7.38
2023-02-27T03:34:50.333Z,8.57
2023-02-27T03:37:39.408Z,9.50
2023-02-27T03:40:19.838Z,7.85
2023-02-27T03:42:54.742Z,8.65
2023-02-27T03:45:35.529Z,8.13
2023-02-27T03:48:04.547Z,9.20
2023-02-27T03:50:33.587Z,7.63
2023-02-27T03:53:06.449Z,9.20
2023-02-27T03:55:37.821Z,9.32
2023-02-27T03:58:05.883Z,8.13
2023-02-27T04:00:33.706Z,9.05
2023-02-27T04:03:02.331Z,7.63
2023-02-27T04:05:29.900Z,7.65
2023-02-27T04:08:27.522Z,7.93
2023-02-27T04:11:25.487Z,7.20
2023-02-27T04:14:12.389Z,7.38
2023-02-27T04:16:54.700Z,7.32
2023-02-27T04:19:22.119Z,8.63
2023-02-27T04:22:17.018Z,7.50
2023-02-27T04:25:11.380Z,7.72
2023-02-27T04:28:00.621Z,9.30
2023-02-27T04:30:32.249Z,8.60
2023-02-27T04:33:30.059Z,7.05
2023-02-27T04:36:10.256Z,6.93
2023-02-27T04:38:48.088Z,8.52
2023-02-27T04:41:27.215Z,7.10
2023-02-27T04:43:57.071Z,7.97
2023-02-27T04:46:28.833Z,6.78
2023-02-27T04:49:08.773Z,6.45
2023-02-27T04:51:44.745Z,6.45
2023-02-27T04:54:21.305Z,6.25
2023-02-27T04:56:54.052Z,6.78
2023-02-27T04:59:36.099Z,8.07
2023-02-27T05:02:13.214Z,6.88
2023-02-27T05:04:44.469Z,6.70
2023-02-27T05:07:18.805Z,5.93
2023-02-27T05:10:15.301Z,7.80
2023-02-27T05:12:53.050Z,6.13
2023-02-27T05:15:27.065Z,7.15
2023-02-27T05:20:55.754Z,6.55
2023-02-27T05:23:50.787Z,7.32
2023-02-27T05:26:39.834Z,6.97
2023-02-27T05:29:36.124Z,7.15
2023-02-27T05:32:24.482Z,6.90
2023-02-27T05:35:00.703Z,7.28
2023-02-27T05:37:48.151Z,7.35
2023-02-27T05:40:22.263Z,7.95
2023-02-27T05:43:03.167Z,6.15
2023-02-27T05:45:34.621Z,9.18
2023-02-27T05:48:11.058Z,6.07
2023-02-27T05:50:40.213Z,6.80
2023-02-27T05:53:11.187Z,8.00
2023-02-27T05:55:43.316Z,7.72
2023-02-27T05:58:30.361Z,7.15
2023-02-27T06:01:01.352Z,7.53
2023-02-27T06:03:31.336Z,6.45
2023-02-27T06:06:01.146Z,7.50
2023-02-27T06:08:28.624Z,5.57
2023-02-27T06:10:56.162Z,8.68
2023-02-27T06:13:24.468Z,9.10
2023-02-27T06:15:53.076Z,22.65
2023-02-27T06:18:20.471Z,9.30
2023-02-27T06:20:48.139Z,6.18
2023-02-27T06:23:15.450Z,6.40
2023-02-27T06:25:43.432Z,8.23
2023-02-27T06:28:11.565Z,7.78
2023-02-27T06:30:39.156Z,30.80
2023-02-27T06:33:06.508Z,5.88
2023-02-27T06:35:34.345Z,11.80
2023-02-27T06:38:01.605Z,9.93
2023-02-27T06:40:29.142Z,11.90
2023-02-27T06:42:56.516Z,11.38
2023-02-27T06:45:24.326Z,7.53
2023-02-27T06:47:51.611Z,9.75
2023-02-27T06:50:19.193Z,14.57
2023-02-27T06:52:46.464Z,11.20
2023-02-27T06:55:19.848Z,11.05
2023-02-27T06:57:47.664Z,12.25
2023-02-27T07:00:16.695Z,8.63
2023-02-27T07:02:43.961Z,9.40
2023-02-27T07:05:14.558Z,10.93
2023-02-27T07:07:42.767Z,10.15
2023-02-27T07:10:12.918Z,12.32
2023-02-27T07:12:40.729Z,14.25
2023-02-27T07:15:11.044Z,9.27
2023-02-27T07:17:39.468Z,9.70
2023-02-27T07:20:08.975Z,8.68
2023-02-27T07:22:37.291Z,7.68
2023-02-27T07:25:05.230Z,6.35
2023-02-27T07:27:32.550Z,7.05
2023-02-27T07:30:01.051Z,10.90
2023-02-27T07:32:28.306Z,8.82
2023-02-27T07:34:55.834Z,8.00
2023-02-27T07:37:23.050Z,8.07
2023-02-27T07:39:51.384Z,7.57
2023-02-27T07:42:18.591Z,8.45
2023-02-27T07:44:46.213Z,8.07
2023-02-27T07:47:13.429Z,10.75
2023-02-27T07:49:41.435Z,9.57
2023-02-27T07:52:08.685Z,9.55
2023-02-27T07:54:37.562Z,8.13
2023-02-27T07:57:05.279Z,7.53
2023-02-27T07:59:33.143Z,12.90
2023-02-27T08:02:00.451Z,7.30
2023-02-27T08:04:27.984Z,8.32
2023-02-27T08:06:55.215Z,7.10
2023-02-27T08:09:23.544Z,8.25
2023-02-27T08:11:50.741Z,7.57
2023-02-27T08:14:18.215Z,7.63
2023-02-27T08:16:45.506Z,8.52
2023-02-27T08:19:14.543Z,6.85
2023-02-27T08:21:42.044Z,6.53
2023-02-27T08:24:09.551Z,6.95
2023-02-27T08:26:36.823Z,5.75
2023-02-27T08:29:04.341Z,6.45
2023-02-27T08:31:31.706Z,5.90
2023-02-27T08:34:09.465Z,8.02
2023-02-27T08:36:38.102Z,5.88
2023-02-27T08:39:07.599Z,8.15
2023-02-27T08:41:35.041Z,7.28
2023-02-27T08:44:02.986Z,7.03
2023-02-27T08:46:30.524Z,6.82
2023-02-27T08:48:58.101Z,7.43
2023-02-27T08:51:25.542Z,12.82
2023-02-27T08:53:55.905Z,6.25
2023-02-27T08:56:23.114Z,6.13
2023-02-27T08:58:50.699Z,6.55
2023-02-27T09:01:18.493Z,8.00
2023-02-27T09:03:46.431Z,5.18
2023-02-27T09:06:13.618Z,6.63
2023-02-27T09:08:41.084Z,5.78
2023-02-27T09:11:08.556Z,7.28
2023-02-27T09:13:36.069Z,6.82
2023-02-27T09:16:03.397Z,5.80
2023-02-27T09:18:30.999Z,6.38
2023-02-27T09:20:58.355Z,6.85
2023-02-27T09:23:25.879Z,6.05
2023-02-27T09:25:53.127Z,6.60
2023-02-27T09:28:21.432Z,5.63
2023-02-27T09:30:48.669Z,6.70
2023-02-27T09:33:16.274Z,5.72
2023-02-27T09:35:43.470Z,5.32
2023-02-27T09:38:12.222Z,5.78
2023-02-27T09:40:42.172Z,7.47
2023-02-27T09:43:16.412Z,6.70
2023-02-27T09:45:46.048Z,7.18
2023-02-27T09:48:27.889Z,5.72
2023-02-27T09:50:55.512Z,5.32
2023-02-27T09:53:41.094Z,6.13
2023-02-27T09:56:17.257Z,5.82
2023-02-27T09:58:50.687Z,6.70
2023-02-27T10:01:33.000Z,5.95
2023-02-27T10:04:16.241Z,7.18
2023-02-27T10:07:06.981Z,6.63
2023-02-27T10:09:40.869Z,6.00
2023-02-27T10:12:17.101Z,6.25
2023-02-27T10:14:59.456Z,6.82
2023-02-27T10:17:41.411Z,6.78
2023-02-27T10:20:17.553Z,5.13
2023-02-27T10:22:47.595Z,8.73
2023-02-27T10:25:30.790Z,7.80
2023-02-27T10:28:09.452Z,5.47
2023-02-27T10:30:37.109Z,6.32
2023-02-27T10:33:15.698Z,5.55
2023-02-27T10:35:45.384Z,6.20
2023-02-27T10:38:21.422Z,5.72
2023-02-27T10:40:49.390Z,6.68
2023-02-27T10:43:19.127Z,5.63
2023-02-27T10:45:47.179Z,6.68
2023-02-27T10:48:15.397Z,5.97
2023-02-27T10:50:45.414Z,6.25
2023-02-27T10:53:27.145Z,4.65
2023-02-27T10:56:04.451Z,5.32
2023-02-27T10:58:35.088Z,6.25
2023-02-27T11:01:06.071Z,5.55
2023-02-27T11:03:35.432Z,7.63
2023-02-27T11:06:20.737Z,6.65
2023-02-27T11:09:23.155Z,5.32
2023-02-27T11:11:51.729Z,7.20
2023-02-27T11:14:33.084Z,4.72
2023-02-27T11:17:02.642Z,5.45
2023-02-27T11:19:29.802Z,4.80
2023-02-27T11:22:07.388Z,5.97
2023-02-27T11:24:34.791Z,5.32
2023-02-27T11:27:17.771Z,5.07
2023-02-27T11:29:58.623Z,6.05
2023-02-27T11:32:44.736Z,4.70
2023-02-27T11:35:21.356Z,5.07
2023-02-27T11:37:51.101Z,5.57
2023-02-27T11:40:21.071Z,5.43
2023-02-27T11:42:55.015Z,4.63
2023-02-27T11:46:10.351Z,5.18
2023-02-27T11:48:31.083Z,5.13
2023-02-27T11:51:08.541Z,5.40
2023-02-27T11:54:07.317Z,5.15
2023-02-27T11:56:39.594Z,4.03
2023-02-27T11:59:25.281Z,5.35
2023-02-27T12:04:33.681Z,5.30
2023-02-27T12:07:38.708Z,5.55
2023-02-27T12:10:08.948Z,3.83
2023-02-27T12:12:51.324Z,5.10
2023-02-27T12:15:36.398Z,4.25
2023-02-27T12:18:06.770Z,5.57
2023-02-27T12:20:57.569Z,4.60
2023-02-27T12:24:03.078Z,4.82
2023-02-27T12:26:45.925Z,4.43
2023-02-27T12:29:38.978Z,4.75
2023-02-27T12:32:42.324Z,4.63
2023-02-27T12:35:27.819Z,4.63
2023-02-27T12:37:56.681Z,3.75
2023-02-27T12:40:31.250Z,5.13
2023-02-27T12:43:27.898Z,4.75
2023-02-27T12:46:23.198Z,3.92
2023-02-27T12:49:28.114Z,4.78
2023-02-27T12:52:01.360Z,4.28
2023-02-27T12:54:59.384Z,4.90
2023-02-27T12:57:26.529Z,4.38
2023-02-27T13:00:07.154Z,3.70
2023-02-27T13:02:45.735Z,3.97
2023-02-27T13:05:36.735Z,4.28
2023-02-27T13:08:12.091Z,4.55
2023-02-27T13:10:48.880Z,3.90
2023-02-27T13:13:38.739Z,3.78
2023-02-27T13:16:17.560Z,3.70
2023-02-27T13:19:05.580Z,3.83
2023-02-27T13:21:45.130Z,3.80
2023-02-27T13:24:24.227Z,4.20
2023-02-27T13:27:19.471Z,3.47
2023-02-27T13:29:59.893Z,4.65
2023-02-27T13:32:43.966Z,4.65
2023-02-27T13:35:18.028Z,5.03
2023-02-27T13:37:55.170Z,3.85
2023-02-27T13:40:36.533Z,4.18
2023-02-27T13:43:25.706Z,3.67
2023-02-27T13:46:01.817Z,4.50
2023-02-27T13:48:43.725Z,4.05
2023-02-27T13:51:35.996Z,4.00
2023-02-27T13:54:18.366Z,2.97
2023-02-27T13:56:54.377Z,3.97
2023-02-27T13:59:26.365Z,3.25
2023-02-27T14:02:11.015Z,4.43
2023-02-27T14:04:48.302Z,4.32
2023-02-27T14:07:23.830Z,3.35
2023-02-27T14:10:00.188Z,3.35
2023-02-27T14:12:44.480Z,3.38
2023-02-27T14:15:22.422Z,3.63
2023-02-27T14:18:09.638Z,5.10
2023-02-27T14:20:41.990Z,3.92
2023-02-27T14:23:15.086Z,3.80
2023-02-27T14:26:16.335Z,3.85
2023-02-27T14:29:02.147Z,3.78
2023-02-27T14:31:32.751Z,3.25
2023-02-27T14:34:05.756Z,4.07
2023-02-27T14:36:40.867Z,4.97
2023-02-27T14:39:21.251Z,4.38
2023-02-27T14:42:24.315Z,4.47
2023-02-27T14:44:52.866Z,4.10
2023-02-27T14:47:45.641Z,3.58
2023-02-27T14:50:34.060Z,3.75
2023-02-27T14:53:02.393Z,5.53
2023-02-27T14:55:34.715Z,3.17
2023-02-27T14:58:19.046Z,3.22
2023-02-27T15:00:55.616Z,3.88
2023-02-27T15:03:27.601Z,3.08
2023-02-27T15:05:59.441Z,3.42
2023-02-27T15:08:31.977Z,2.80
2023-02-27T15:11:00.800Z,4.18
2023-02-27T15:13:48.471Z,3.17
2023-02-27T15:16:31.194Z,2.90
2023-02-27T15:19:03.514Z,3.92
2023-02-27T15:21:38.106Z,2.90
2023-02-27T15:24:08.800Z,3.35
2023-02-27T15:26:39.962Z,3.97
2023-02-27T15:29:08.658Z,2.85
2023-02-27T15:31:36.033Z,3.67
2023-02-27T15:34:04.259Z,3.58
2023-02-27T15:36:35.180Z,4.45
2023-02-27T15:39:27.171Z,3.63
2023-02-27T15:42:02.938Z,4.90
2023-02-27T15:44:31.926Z,3.78
2023-02-27T15:47:02.390Z,4.25
2023-02-27T15:49:30.197Z,3.55
2023-02-27T15:52:12.359Z,4.95
2023-02-27T15:54:54.130Z,3.42
2023-02-27T15:57:23.092Z,3.65
2023-02-27T15:59:52.312Z,4.30
2023-02-27T16:02:29.898Z,3.97
2023-02-27T16:04:58.828Z,4.28
2023-02-27T16:07:26.914Z,4.97
2023-02-27T16:10:03.063Z,4.28
2023-02-27T16:12:36.944Z,3.75
2023-02-27T16:15:36.343Z,3.88
2023-02-27T16:18:27.991Z,3.70
2023-02-27T16:21:08.609Z,5.20
2023-02-27T16:23:35.884Z,4.10
2023-02-27T16:26:15.582Z,4.03
2023-02-27T16:29:15.185Z,2.85
2023-02-27T16:31:56.959Z,5.25
2023-02-27T16:34:45.473Z,4.50
2023-02-27T16:37:21.236Z,6.20
2023-02-27T16:39:52.281Z,4.00
2023-02-27T16:42:21.055Z,9.18
2023-02-27T16:44:48.382Z,11.90
2023-02-27T16:47:15.870Z,13.70
2023-02-27T16:49:44.420Z,10.70
2023-02-27T16:52:12.335Z,10.68
2023-02-27T16:54:42.065Z,13.18
2023-02-27T16:57:10.679Z,12.52
2023-02-27T16:59:40.451Z,11.52
2023-02-27T17:02:13.224Z,11.45
2023-02-27T17:04:44.077Z,10.95
2023-02-27T17:07:15.836Z,10.70
2023-02-27T17:09:44.848Z,9.82
2023-02-27T17:12:12.787Z,10.05
2023-02-27T17:14:40.034Z,10.88
2023-02-27T17:17:07.654Z,9.85
2023-02-27T17:19:34.987Z,9.43
2023-02-27T17:22:03.035Z,10.23
2023-02-27T17:24:30.376Z,10.48
2023-02-27T17:26:57.905Z,8.30
2023-02-27T17:29:25.343Z,10.55
2023-02-27T17:31:52.957Z,11.90
2023-02-27T17:34:20.341Z,8.38
2023-02-27T17:36:48.737Z,10.05
2023-02-27T17:39:16.798Z,8.35
2023-02-27T17:41:44.335Z,7.18
2023-02-27T17:44:12.035Z,8.10
2023-02-27T17:46:40.619Z,9.57
2023-02-27T17:49:09.525Z,8.68
2023-02-27T17:51:37.885Z,7.00
2023-02-27T17:54:08.359Z,8.15
2023-02-27T17:56:37.039Z,7.43
2023-02-27T17:59:05.400Z,9.90
2023-02-27T18:01:33.324Z,7.32
2023-02-27T18:04:00.734Z,7.43
2023-02-27T18:06:28.673Z,8.00
2023-02-27T18:08:57.078Z,7.15
2023-02-27T18:11:24.594Z,7.43
2023-02-27T18:13:52.115Z,6.55
2023-02-27T18:16:21.903Z,8.75
2023-02-27T18:18:50.492Z,6.43
2023-02-27T18:21:21.198Z,9.50
2023-02-27T18:23:50.609Z,8.27
2023-02-27T18:26:29.882Z,13.75
2023-02-27T18:29:00.762Z,10.48
2023-02-27T18:31:31.797Z,10.77
2023-02-27T18:34:00.040Z,6.63
2023-02-27T18:36:29.253Z,8.48
2023-02-27T18:38:59.140Z,8.35
2023-02-27T18:41:27.751Z,7.05
2023-02-27T18:43:55.563Z,8.13
2023-02-27T18:46:23.193Z,8.82
2023-02-27T18:48:51.130Z,6.50
2023-02-27T18:51:18.921Z,9.55
2023-02-27T18:53:48.352Z,7.45
2023-02-27T18:56:18.648Z,6.88
2023-02-27T18:58:46.260Z,5.88
2023-02-27T19:01:26.224Z,7.05
2023-02-27T19:03:56.303Z,5.25
2023-02-27T19:06:23.975Z,6.63
2023-02-27T19:08:51.637Z,6.10
2023-02-27T19:11:25.270Z,7.55
2023-02-27T19:13:53.458Z,8.82
2023-02-27T19:16:21.173Z,5.55
2023-02-27T19:18:48.584Z,7.22
2023-02-27T19:21:18.447Z,5.68
2023-02-27T19:23:45.729Z,8.95
2023-02-27T19:26:13.303Z,16.77
2023-02-27T19:28:41.640Z,12.95
2023-02-27T19:31:11.261Z,6.80
2023-02-27T19:33:39.136Z,8.40
2023-02-27T19:36:12.349Z,6.82
2023-02-27T19:38:40.150Z,6.97
2023-02-27T19:41:10.983Z,11.15
2023-02-27T19:43:40.639Z,5.93
2023-02-27T19:46:14.415Z,6.78
2023-02-27T19:48:42.834Z,8.02
2023-02-27T19:51:14.739Z,6.63
2023-02-27T19:53:45.261Z,5.93
2023-02-27T19:56:18.199Z,6.07
2023-02-27T19:58:46.626Z,7.10
2023-02-27T20:01:28.738Z,5.28
2023-02-27T20:03:56.312Z,6.43
2023-02-27T20:06:26.114Z,5.93
2023-02-27T20:08:54.245Z,5.30
2023-02-27T20:11:21.790Z,5.47
2023-02-27T20:13:50.946Z,6.03
2023-02-27T20:16:22.099Z,5.22
2023-02-27T20:18:50.042Z,6.32
2023-02-27T20:21:21.099Z,4.88
2023-02-27T20:23:51.497Z,6.03
2023-02-27T20:26:28.357Z,5.38
2023-02-27T20:29:00.513Z,4.90
2023-02-27T20:31:31.023Z,6.18
2023-02-27T20:34:01.012Z,4.95
2023-02-27T20:36:29.049Z,6.75
2023-02-27T20:38:56.335Z,4.68
2023-02-27T20:41:28.238Z,6.60
2023-02-27T20:43:57.192Z,6.57
2023-02-27T20:46:28.475Z,4.40
2023-02-27T20:49:00.580Z,6.13
2023-02-27T20:51:31.133Z,5.05
2023-02-27T20:54:00.076Z,6.20
2023-02-27T20:56:33.465Z,5.40
2023-02-27T20:59:03.437Z,5.80
2023-02-27T21:01:31.387Z,4.72
2023-02-27T21:03:59.667Z,4.65
2023-02-27T21:06:27.438Z,6.35
2023-02-27T21:08:56.592Z,5.93
2023-02-27T21:11:29.781Z,5.78
2023-02-27T21:14:02.019Z,6.93
2023-02-27T21:16:30.199Z,6.22
2023-02-27T21:18:57.944Z,4.50
2023-02-27T21:21:31.810Z,4.90
2023-02-27T21:23:59.764Z,5.05
2023-02-27T21:26:33.253Z,4.47
2023-02-27T21:29:08.854Z,4.70
2023-02-27T21:31:37.548Z,4.53
2023-02-27T21:34:08.476Z,4.82
2023-02-27T21:36:42.215Z,7.53
2023-02-27T21:39:16.694Z,4.13
2023-02-27T21:41:45.690Z,4.45
2023-02-27T21:44:15.441Z,5.28
2023-02-27T21:46:43.106Z,4.78
2023-02-27T21:49:16.836Z,4.13
2023-02-27T21:51:44.714Z,5.75
2023-02-27T21:54:13.147Z,4.85
2023-02-27T21:56:42.118Z,6.30
2023-02-27T21:59:09.701Z,6.50
2023-02-27T22:01:38.276Z,4.75
2023-02-27T22:04:06.058Z,6.00
2023-02-27T22:06:34.392Z,5.95
2023-02-27T22:09:04.961Z,7.07
2023-02-27T22:11:34.280Z,5.25
2023-02-27T22:14:03.092Z,4.57
2023-02-27T22:16:30.551Z,6.55
2023-02-27T22:18:57.900Z,5.90
2023-02-27T22:21:27.247Z,4.90
2023-02-27T22:23:56.810Z,5.93
2023-02-27T22:26:28.033Z,8.30
2023-02-27T22:28:57.257Z,4.82
2023-02-27T22:31:31.389Z,5.00
2023-02-27T22:34:02.169Z,4.85
2023-02-27T22:36:31.188Z,4.75
2023-02-27T22:38:59.265Z,6.25
2023-02-27T22:41:30.667Z,5.45
2023-02-27T22:44:00.183Z,4.95
2023-02-27T22:46:33.496Z,6.30
2023-02-27T22:49:21.940Z,5.72
2023-02-27T22:51:51.624Z,5.53
2023-02-27T22:54:21.194Z,4.68
2023-02-27T22:56:53.246Z,5.38
2023-02-27T22:59:22.135Z,5.32
2023-02-27T23:01:50.498Z,4.93
2023-02-27T23:04:18.344Z,6.03
2023-02-27T23:06:46.001Z,5.32
2023-02-27T23:09:16.985Z,6.10
2023-02-27T23:11:45.002Z,5.65
2023-02-27T23:14:13.178Z,6.47
2023-02-27T23:16:45.258Z,6.00
2023-02-27T23:19:17.303Z,4.72
2023-02-27T23:21:45.124Z,5.07
2023-02-27T23:24:14.374Z,4.50
2023-02-27T23:26:47.174Z,5.95
2023-02-27T23:29:14.986Z,7.07
2023-02-27T23:31:43.274Z,5.95
2023-02-27T23:34:10.570Z,4.75
2023-02-27T23:36:41.574Z,5.68
2023-02-27T23:39:09.291Z,7.05
2023-02-27T23:41:37.646Z,4.80
2023-02-27T23:44:04.904Z,5.13
2023-02-27T23:46:32.398Z,5.55
2023-02-27T23:49:00.833Z,5.25
2023-02-27T23:51:30.459Z,5.55
2023-02-27T23:53:58.534Z,6.18
2023-02-27T23:56:29.283Z,5.40
2023-02-27T23:59:05.602Z,5.45
